Time;durP1;ratioP1;P1;durP2;ratioP2;P2;SDS_P1;SDS_P2;PMS_P1;PMS_P2;Temp;Humidity;BMP_temperature;BMP_pressure;BME280_temperature;BME280_humidity;BME280_pressure;Samples;Min_cycle;Max_cycle;Signal;HPM_P1;HPM_P2
2022/03/30 00:01:00;;;;;;;;;;;;;;;1.82;75.62;99444.79;88314;1271;78244;-73
2022/03/30 00:03:10;;;;;;;;;;;;;;;1.78;75.87;99444.31;88391;1270;82109;-73
2022/03/30 00:05:18;;;;;;;;;;;;;;;1.75;75.85;99441.61;88394;1270;101143;-71
2022/03/30 00:07:28;;;;;;;;;;;;;;;1.76;75.81;99438.70;88384;1270;86780;-71
2022/03/30 00:09:38;;;;;;;;;;;;;;;1.77;76.04;99442.77;88364;1270;94269;-71
2022/03/30 00:11:47;;;;;;;;;;;;;;;1.75;76.08;99439.64;88303;1271;81706;-72
2022/03/30 00:13:57;;;;;;;;;;;;;;;1.74;76.17;99443.35;88407;1270;81855;-72
2022/03/30 00:16:09;;;;;;;;;;;;;;;1.75;76.26;99442.14;88381;1270;98047;-72
2022/03/30 00:18:16;;;;;;;;;;;;;;;1.72;76.19;99439.77;88370;1270;88538;-71
2022/03/30 00:20:23;;;;;;;;;;;;;;;1.67;76.16;99440.30;88342;1270;95562;-71
2022/03/30 00:22:31;;;;;;;;;;;;;;;1.64;76.27;99436.22;88345;1270;78041;-71
2022/03/30 00:24:43;;;;;;;;;;;;;;;1.58;76.29;99437.73;88382;1270;81426;-71
2022/03/30 00:26:51;;;;;;;;;;;;;;;1.54;76.33;99441.72;88369;1270;98757;-72
2022/03/30 00:28:58;;;;;;;;;;;;;;;1.46;76.32;99440.14;88380;1270;89345;-71
2022/03/30 00:31:05;;;;;;;;;;;;;;;1.42;76.45;99441.49;88378;1270;95982;-72
2022/03/30 00:33:17;;;;;;;;;;;;;;;1.37;76.42;99437.02;88380;1270;78941;-71
2022/03/30 00:35:24;;;;;;;;;;;;;;;1.33;76.50;99438.50;88374;1270;82039;-72
2022/03/30 00:37:31;;;;;;;;;;;;;;;1.30;76.61;99437.01;88413;1270;100283;-70
2022/03/30 00:39:42;;;;;;;;;;;;;;;1.29;76.62;99433.08;88355;1270;88208;-69
2022/03/30 00:41:53;;;;;;;;;;;;;;;1.30;76.78;99431.88;88365;1270;94757;-71
2022/03/30 00:44:12;;;;;;;;;;;;;;;1.30;76.64;99433.88;88376;1270;79245;-71
2022/03/30 00:46:21;;;;;;;;;;;;;;;1.27;76.81;99435.36;88386;1270;80857;-70
2022/03/30 00:48:29;;;;;;;;;;;;;;;1.28;76.97;99432.80;88294;1273;100299;-70
2022/03/30 00:50:36;;;;;;;;;;;;;;;1.31;76.99;99432.89;88374;1270;87617;-70
2022/03/30 00:52:44;;;;;;;;;;;;;;;1.35;77.04;99428.95;88367;1270;94890;-71
2022/03/30 00:54:54;;;;;;;;;;;;;;;1.38;77.03;99425.23;88361;1270;79471;-71
2022/03/30 00:57:02;;;;;;;;;;;;;;;1.37;77.14;99424.42;88382;1270;80292;-71
2022/03/30 00:59:09;;;;;;;;;;;;;;;1.35;77.45;99428.56;88385;1270;100041;-70
2022/03/30 01:01:16;;;;;;;;;;;;;;;1.34;77.46;99430.95;88377;1270;87643;-71
2022/03/30 01:03:23;;;;;;;;;;;;;;;1.31;77.33;99428.73;88376;1270;94564;-70
2022/03/30 01:05:31;;;;;;;;;;;;;;;1.31;77.31;99435.34;88370;1270;81300;-72
2022/03/30 01:07:41;;;;;;;;;;;;;;;1.31;77.50;99429.84;88400;1270;79568;-76
2022/03/30 01:09:51;;;;;;;;;;;;;;;1.33;77.67;99427.54;88374;1270;98931;-73
2022/03/30 01:12:02;;;;;;;;;;;;;;;1.32;77.65;99428.34;88224;1273;89482;-73
2022/03/30 01:14:13;;;;;;;;;;;;;;;1.33;77.77;99427.54;88361;1270;95226;-74
2022/03/30 01:16:25;;;;;;;;;;;;;;;1.36;77.85;99427.58;88361;1270;80178;-73
2022/03/30 01:18:38;;;;;;;;;;;;;;;1.39;77.89;99426.88;88397;1270;81920;-71
2022/03/30 01:20:50;;;;;;;;;;;;;;;1.43;77.82;99423.48;88398;1270;98462;-73
2022/03/30 01:23:02;;;;;;;;;;;;;;;1.45;77.81;99425.05;88367;1270;86770;-73
2022/03/30 01:25:12;;;;;;;;;;;;;;;1.46;77.69;99418.51;88349;1270;95595;-71
2022/03/30 01:27:22;;;;;;;;;;;;;;;1.49;77.94;99419.12;88366;1270;81067;-72
2022/03/30 01:34:24;;;;;;;;;;;;;;;1.74;78.14;99410.15;88342;1270;88881;-73
2022/03/30 01:36:31;;;;;;;;;;;;;;;1.74;78.37;99405.44;88369;1270;93443;-74
2022/03/30 01:38:38;;;;;;;;;;;;;;;1.79;78.22;99402.71;88364;1270;76894;-72
2022/03/30 01:40:48;;;;;;;;;;;;;;;1.77;78.19;99402.84;88421;1270;81323;-72
2022/03/30 01:42:56;;;;;;;;;;;;;;;1.73;78.05;99399.95;88383;1270;99454;-73
2022/03/30 01:45:03;;;;;;;;;;;;;;;1.66;78.03;99400.51;88377;1268;89459;-72
2022/03/30 01:47:12;;;;;;;;;;;;;;;1.62;77.99;99398.74;88313;1271;94703;-72
2022/03/30 01:49:21;;;;;;;;;;;;;;;1.58;77.68;99394.96;88370;1270;77962;-72
2022/03/30 01:51:34;;;;;;;;;;;;;;;1.52;77.74;99388.98;88387;1270;82246;-71
2022/03/30 01:53:41;;;;;;;;;;;;;;;1.42;77.68;99388.60;88373;1270;97787;-73
2022/03/30 01:55:52;;;;;;;;;;;;;;;1.34;77.65;99388.25;88409;1270;88492;-71
2022/03/30 01:58:02;;;;;;;;;;;;;;;1.26;77.59;99383.54;88378;1269;93822;-73
2022/03/30 02:00:16;;;;;;;;;;;;;;;1.16;77.74;99380.23;88396;1270;79872;-71
2022/03/30 02:02:24;;;;;;;;;;;;;;;1.07;77.59;99379.23;88380;1270;82810;-72
2022/03/30 02:04:32;;;;;;;;;;;;;;;1.02;77.66;99373.04;88368;1270;100553;-72
2022/03/30 02:06:40;;;;;;;;;;;;;;;0.96;77.94;99374.19;88402;1270;87367;-73
2022/03/30 02:08:50;;;;;;;;;;;;;;;0.92;77.85;99374.08;88405;1270;95406;-73
2022/03/30 02:11:00;;;;;;;;;;;;;;;0.90;77.93;99366.99;88402;1270;77636;-73
2022/03/30 02:13:10;;;;;;;;;;;;;;;0.89;77.90;99365.16;88382;1270;83648;-70
2022/03/30 02:15:17;;;;;;;;;;;;;;;0.87;78.13;99362.89;88354;1270;99953;-73
2022/03/30 02:17:26;;;;;;;;;;;;;;;0.85;78.20;99363.30;88392;1270;87935;-73
2022/03/30 02:19:33;;;;;;;;;;;;;;;0.84;78.23;99360.14;88380;1270;94178;-73
2022/03/30 02:21:41;;;;;;;;;;;;;;;0.87;78.21;99359.89;88333;1271;77732;-73
2022/03/30 02:23:52;;;;;;;;;;;;;;;0.90;78.47;99361.84;88403;1270;79764;-72
2022/03/30 02:25:59;;;;;;;;;;;;;;;0.91;78.41;99354.98;88413;1270;100119;-72
2022/03/30 02:28:09;;;;;;;;;;;;;;;0.89;78.51;99352.86;88352;1271;86762;-73
2022/03/30 02:30:20;;;;;;;;;;;;;;;0.87;78.55;99354.02;88364;1270;93221;-71
2022/03/30 02:32:28;;;;;;;;;;;;;;;0.85;78.50;99353.29;88331;1273;79116;-73
2022/03/30 02:34:35;;;;;;;;;;;;;;;0.82;78.82;99351.87;88368;1270;79169;-73
2022/03/30 02:36:46;;;;;;;;;;;;;;;0.80;78.80;99352.61;88426;1270;98768;-72
2022/03/30 02:38:53;;;;;;;;;;;;;;;0.80;78.76;99357.23;88396;1270;89360;-72
2022/03/30 02:41:05;;;;;;;;;;;;;;;0.78;78.98;99354.20;88364;1270;94046;-72
2022/03/30 02:43:19;;;;;;;;;;;;;;;0.78;78.92;99352.74;88360;1270;77828;-72
2022/03/30 02:45:27;;;;;;;;;;;;;;;0.79;79.08;99351.25;88388;1269;82248;-72
2022/03/30 02:50:04;;;;;;;;;;;;;;;0.81;79.30;99346.95;88399;1270;87998;-72
2022/03/30 02:52:14;;;;;;;;;;;;;;;0.82;79.15;99346.20;88379;1270;93576;-73
2022/03/30 02:54:21;;;;;;;;;;;;;;;0.81;79.27;99341.86;88383;1269;78943;-73
2022/03/30 02:56:31;;;;;;;;;;;;;;;0.77;79.30;99342.82;88374;1269;80768;-72
2022/03/30 02:58:38;;;;;;;;;;;;;;;0.75;79.34;99343.56;88378;1270;98343;-72
2022/03/30 03:00:49;;;;;;;;;;;;;;;0.75;79.49;99341.98;88379;1269;88723;-72
2022/03/30 03:02:56;;;;;;;;;;;;;;;0.71;79.56;99341.08;88367;1270;94062;-73
2022/03/30 03:05:06;;;;;;;;;;;;;;;0.69;79.50;99341.13;88379;1270;78635;-72
2022/03/30 03:07:16;;;;;;;;;;;;;;;0.71;79.52;99340.88;88338;1270;82931;-73
2022/03/30 03:09:23;;;;;;;;;;;;;;;0.71;79.75;99342.52;88353;1270;100606;-71
2022/03/30 03:11:33;;;;;;;;;;;;;;;0.74;79.68;99342.94;88385;1270;88745;-72
2022/03/30 03:13:40;;;;;;;;;;;;;;;0.78;79.68;99343.10;88385;1270;94128;-71
2022/03/30 03:15:48;;;;;;;;;;;;;;;0.79;79.73;99345.40;88356;1270;79598;-73
2022/03/30 03:17:55;;;;;;;;;;;;;;;0.83;79.71;99343.77;88372;1270;79556;-73
2022/03/30 03:20:02;;;;;;;;;;;;;;;0.87;79.66;99336.59;88388;1270;99732;-73
2022/03/30 03:22:12;;;;;;;;;;;;;;;0.98;79.58;99334.66;88392;1270;88322;-73
2022/03/30 03:24:19;;;;;;;;;;;;;;;1.04;79.53;99327.62;88367;1270;95299;-71
2022/03/30 03:26:26;;;;;;;;;;;;;;;1.12;79.55;99327.85;88403;1269;78517;-72
2022/03/30 03:28:34;;;;;;;;;;;;;;;1.13;79.62;99328.24;88383;1270;81981;-73
2022/03/30 03:30:44;;;;;;;;;;;;;;;1.12;79.35;99329.28;88395;1270;99507;-72
2022/03/30 03:32:54;;;;;;;;;;;;;;;1.09;79.34;99332.41;88390;1270;89593;-72
2022/03/30 03:35:04;;;;;;;;;;;;;;;1.04;79.23;99334.86;88383;1270;95166;-72
2022/03/30 03:37:11;;;;;;;;;;;;;;;0.99;79.14;99333.88;88376;1270;77268;-72
2022/03/30 03:39:18;;;;;;;;;;;;;;;0.94;79.05;99331.98;88389;1270;83472;-72
2022/03/30 03:41:25;;;;;;;;;;;;;;;0.91;78.91;99330.48;88325;1271;99887;-73
2022/03/30 03:43:36;;;;;;;;;;;;;;;0.91;79.09;99330.18;88389;1270;88744;-71
2022/03/30 03:45:46;;;;;;;;;;;;;;;0.87;78.88;99328.48;88391;1270;95783;-72
2022/03/30 03:47:56;;;;;;;;;;;;;;;0.80;79.00;99328.13;88334;1271;76967;-73
2022/03/30 03:50:04;;;;;;;;;;;;;;;0.72;79.08;99325.02;88388;1270;81122;-73
2022/03/30 03:52:14;;;;;;;;;;;;;;;0.66;79.06;99320.31;88385;1270;100266;-74
2022/03/30 03:54:21;;;;;;;;;;;;;;;0.62;79.00;99315.61;88420;1270;87347;-74
2022/03/30 03:56:28;;;;;;;;;;;;;;;0.53;79.11;99320.52;88377;1270;94792;-72
2022/03/30 03:58:36;;;;;;;;;;;;;;;0.46;79.29;99313.49;88385;1270;78402;-73
2022/03/30 04:00:43;;;;;;;;;;;;;;;0.39;79.18;99316.08;88439;1270;83091;-70
2022/03/30 04:02:51;;;;;;;;;;;;;;;0.34;79.28;99319.67;88365;1270;99280;-70
2022/03/30 04:04:59;;;;;;;;;;;;;;;0.30;79.20;99320.42;88409;1270;87832;-70
2022/03/30 04:07:07;;;;;;;;;;;;;;;0.24;79.60;99320.84;88348;1270;94780;-70
2022/03/30 04:09:15;;;;;;;;;;;;;;;0.24;79.79;99320.83;88389;1270;78181;-68
2022/03/30 04:11:27;;;;;;;;;;;;;;;0.22;79.85;99319.04;88386;1269;82825;-71
2022/03/30 04:13:36;;;;;;;;;;;;;;;0.21;79.89;99321.80;88343;1271;99914;-70
2022/03/30 04:15:49;;;;;;;;;;;;;;;0.19;79.70;99324.14;88425;1270;87876;-72
2022/03/30 04:18:03;;;;;;;;;;;;;;;0.15;79.95;99322.73;88407;1270;93033;-69
2022/03/30 04:20:15;;;;;;;;;;;;;;;0.13;79.81;99326.84;88381;1270;79522;-71
2022/03/30 04:22:26;;;;;;;;;;;;;;;0.11;79.92;99326.05;88385;1270;81391;-71
2022/03/30 04:24:33;;;;;;;;;;;;;;;0.06;79.82;99330.95;88395;1269;99666;-69
2022/03/30 04:26:46;;;;;;;;;;;;;;;0.04;79.84;99327.23;88434;1270;87431;-70
2022/03/30 04:28:56;;;;;;;;;;;;;;;0.06;79.94;99325.97;88385;1270;95505;-71
2022/03/30 04:31:07;;;;;;;;;;;;;;;0.09;80.48;99322.70;88293;1273;79317;-71
2022/03/30 04:33:18;;;;;;;;;;;;;;;0.13;80.48;99320.52;88314;1271;81875;-71
2022/03/30 04:35:29;;;;;;;;;;;;;;;0.18;80.58;99320.84;88434;1270;99550;-71
2022/03/30 04:37:40;;;;;;;;;;;;;;;0.22;80.52;99319.41;88343;1270;88298;-72
2022/03/30 04:39:47;;;;;;;;;;;;;;;0.31;80.82;99322.04;88363;1270;94838;-69
2022/03/30 04:41:55;;;;;;;;;;;;;;;0.42;81.01;99320.59;88328;1270;80934;-69
2022/03/30 04:44:02;;;;;;;;;;;;;;;0.52;80.91;99320.85;88356;1270;83228;-70
2022/03/30 04:46:13;;;;;;;;;;;;;;;0.61;80.95;99322.39;88350;1270;98716;-71
2022/03/30 04:48:20;;;;;;;;;;;;;;;0.72;81.00;99322.91;88384;1270;88823;-71
2022/03/30 04:50:28;;;;;;;;;;;;;;;0.88;81.15;99321.78;88328;1270;95559;-70
2022/03/30 04:52:35;;;;;;;;;;;;;;;1.03;81.10;99320.44;88400;1270;78904;-70
2022/03/30 04:54:43;;;;;;;;;;;;;;;1.17;81.22;99321.80;88373;1270;81260;-71
2022/03/30 04:56:53;;;;;;;;;;;;;;;1.40;81.29;99319.52;88382;1270;97683;-71
2022/03/30 04:59:00;;;;;;;;;;;;;;;1.59;81.34;99319.59;88380;1270;88944;-70
2022/03/30 05:01:07;;;;;;;;;;;;;;;1.79;81.21;99324.73;88351;1270;95200;-69
2022/03/30 05:03:15;;;;;;;;;;;;;;;2.03;80.95;99321.17;88294;1271;79305;-70
2022/03/30 05:05:26;;;;;;;;;;;;;;;2.26;80.86;99325.98;88376;1270;80344;-69
2022/03/30 05:07:33;;;;;;;;;;;;;;;2.51;80.63;99324.95;88381;1270;99690;-70
2022/03/30 05:09:43;;;;;;;;;;;;;;;2.75;80.51;99323.86;88394;1270;89924;-70
2022/03/30 05:11:51;;;;;;;;;;;;;;;3.02;80.29;99323.05;88397;1270;95860;-71
2022/03/30 05:13:59;;;;;;;;;;;;;;;3.29;79.96;99322.55;88401;1270;79345;-71
2022/03/30 05:16:09;;;;;;;;;;;;;;;3.59;79.86;99318.97;88379;1270;83542;-69
2022/03/30 05:18:20;;;;;;;;;;;;;;;3.88;79.49;99326.69;88341;1270;99622;-69
2022/03/30 05:20:30;;;;;;;;;;;;;;;4.04;79.19;99323.81;88386;1270;89003;-70
2022/03/30 05:22:37;;;;;;;;;;;;;;;4.34;78.99;99327.07;88379;1270;95177;-71
2022/03/30 05:24:44;;;;;;;;;;;;;;;4.95;78.66;99323.96;88385;1270;76776;-70
2022/03/30 05:26:53;;;;;;;;;;;;;;;5.80;78.50;99327.19;88401;1270;81451;-71
2022/03/30 05:29:00;;;;;;;;;;;;;;;6.55;77.68;99329.23;88404;1270;98066;-71
2022/03/30 05:31:07;;;;;;;;;;;;;;;7.05;76.76;99329.16;88381;1270;87627;-69
2022/03/30 05:33:14;;;;;;;;;;;;;;;7.31;76.12;99329.59;88357;1270;95421;-68
2022/03/30 05:35:21;;;;;;;;;;;;;;;7.46;74.94;99327.10;88343;1270;79232;-70
2022/03/30 05:37:30;;;;;;;;;;;;;;;7.26;74.28;99330.62;88374;1270;83026;-71
2022/03/30 05:39:41;;;;;;;;;;;;;;;7.02;73.39;99335.29;88369;1270;99391;-70
2022/03/30 05:41:48;;;;;;;;;;;;;;;6.72;73.14;99343.00;88387;1270;87098;-71
2022/03/30 05:43:58;;;;;;;;;;;;;;;6.54;73.04;99345.02;88366;1270;93968;-71
2022/03/30 05:46:09;;;;;;;;;;;;;;;6.46;73.12;99344.22;88331;1273;77337;-71
2022/03/30 05:48:20;;;;;;;;;;;;;;;6.48;73.20;99348.27;88389;1270;79983;-71
2022/03/30 05:50:34;;;;;;;;;;;;;;;6.52;72.89;99351.03;88367;1270;98329;-71
2022/03/30 05:52:41;;;;;;;;;;;;;;;6.67;72.88;99350.45;88406;1270;87790;-72
2022/03/30 05:54:51;;;;;;;;;;;;;;;6.97;72.69;99349.16;88304;1271;94882;-71
2022/03/30 05:57:01;;;;;;;;;;;;;;;7.43;72.66;99347.13;88374;1270;79165;-72
2022/03/30 05:59:09;;;;;;;;;;;;;;;7.97;71.99;99343.11;88404;1270;83174;-71
2022/03/30 06:01:20;;;;;;;;;;;;;;;8.39;71.80;99340.95;88301;1271;99451;-71
2022/03/30 06:03:27;;;;;;;;;;;;;;;8.49;71.39;99338.16;88391;1270;89523;-71
2022/03/30 06:05:35;;;;;;;;;;;;;;;8.51;70.76;99338.76;88380;1270;93507;-70
2022/03/30 06:07:42;;;;;;;;;;;;;;;8.81;70.39;99336.52;88371;1270;80501;-69
2022/03/30 06:09:52;;;;;;;;;;;;;;;9.33;70.28;99339.10;88380;1270;81235;-70
2022/03/30 06:11:59;;;;;;;;;;;;;;;10.07;69.64;99335.45;88419;1270;97547;-70
2022/03/30 06:14:09;;;;;;;;;;;;;;;10.68;69.05;99333.41;88368;1269;87908;-69
2022/03/30 06:16:19;;;;;;;;;;;;;;;11.11;68.12;99333.38;88398;1270;93512;-70
2022/03/30 06:18:26;;;;;;;;;;;;;;;11.52;67.61;99332.07;88367;1270;78403;-68
2022/03/30 06:20:33;;;;;;;;;;;;;;;11.94;66.69;99329.60;88400;1270;79667;-71
2022/03/30 06:22:41;;;;;;;;;;;;;;;12.52;65.35;99326.34;88389;1270;99844;-69
2022/03/30 06:24:49;;;;;;;;;;;;;;;12.92;64.99;99326.02;88371;1270;89433;-71
2022/03/30 06:26:57;;;;;;;;;;;;;;;13.62;64.21;99322.37;88327;1271;93765;-69
2022/03/30 06:29:04;;;;;;;;;;;;;;;13.97;62.86;99322.91;88370;1270;78191;-68
2022/03/30 06:31:17;;;;;;;;;;;;;;;14.54;62.15;99327.69;88418;1270;82550;-68
2022/03/30 06:33:25;;;;;;;;;;;;;;;15.02;61.11;99327.98;88306;1271;99900;-69
2022/03/30 06:35:36;;;;;;;;;;;;;;;15.40;59.63;99328.89;88398;1270;86932;-70
2022/03/30 06:37:44;;;;;;;;;;;;;;;15.84;58.78;99327.97;88380;1270;93379;-70
2022/03/30 06:39:55;;;;;;;;;;;;;;;16.32;58.14;99323.16;88381;1270;80986;-71
2022/03/30 06:42:07;;;;;;;;;;;;;;;16.62;56.99;99326.67;88402;1270;81297;-69
2022/03/30 06:44:15;;;;;;;;;;;;;;;16.69;56.35;99323.86;88397;1270;100988;-69
2022/03/30 06:46:25;;;;;;;;;;;;;;;17.12;55.63;99328.20;88319;1272;87890;-69
2022/03/30 06:48:34;;;;;;;;;;;;;;;17.13;54.63;99325.98;88386;1270;95410;-69
2022/03/30 06:50:41;;;;;;;;;;;;;;;17.65;54.30;99326.89;88383;1270;78301;-70
2022/03/30 06:52:48;;;;;;;;;;;;;;;18.31;53.38;99328.33;88386;1270;82868;-72
2022/03/30 06:54:59;;;;;;;;;;;;;;;18.23;52.32;99333.00;88387;1270;99684;-70
2022/03/30 06:57:09;;;;;;;;;;;;;;;18.57;51.54;99330.50;88389;1270;88219;-71
2022/03/30 06:59:18;;;;;;;;;;;;;;;18.63;50.84;99328.20;88376;1270;95093;-70
2022/03/30 07:01:25;;;;;;;;;;;;;;;18.82;50.13;99333.45;88385;1270;80273;-71
2022/03/30 07:03:33;;;;;;;;;;;;;;;18.86;48.33;99336.09;88389;1270;81770;-72
2022/03/30 07:11:02;;;;;;;;;;;;;;;20.26;46.41;99337.17;87611;1284;95143;-72
2022/03/30 07:13:12;;;;;;;;;;;;;;;20.80;45.96;99336.70;87702;1278;78724;-72
2022/03/30 07:15:21;;;;;;;;;;;;;;;21.55;45.10;99332.98;87373;1285;82037;-71
2022/03/30 07:17:37;;;;;;;;;;;;;;;22.03;43.84;99331.39;87433;1287;99776;-67
2022/03/30 07:20:03;;;;;;;;;;;;;;;22.18;43.30;99333.45;86987;1286;523286;-68
2022/03/30 07:22:17;;;;;;;;;;;;;;;22.52;42.49;99333.44;87375;1287;94859;-71
2022/03/30 07:24:28;;;;;;;;;;;;;;;23.01;41.47;99333.01;87381;1287;77914;-72
2022/03/30 07:26:41;;;;;;;;;;;;;;;22.90;40.53;99332.05;87408;1287;80410;-69
2022/03/30 07:28:49;;;;;;;;;;;;;;;22.82;39.78;99336.40;87396;1287;99717;-68
2022/03/30 07:30:57;;;;;;;;;;;;;;;22.52;39.33;99338.61;87349;1287;89993;-70
2022/03/30 07:33:06;;;;;;;;;;;;;;;22.26;38.64;99341.50;87350;1287;95529;-68
2022/03/30 07:35:15;;;;;;;;;;;;;;;21.82;38.06;99341.61;87357;1287;80581;-68
2022/03/30 07:37:29;;;;;;;;;;;;;;;22.24;37.74;99341.79;87358;1287;82940;-68
2022/03/30 07:39:36;;;;;;;;;;;;;;;22.55;37.34;99343.09;87501;1278;99968;-72
2022/03/30 07:41:46;;;;;;;;;;;;;;;23.06;37.11;99343.17;87657;1284;89761;-72
2022/03/30 07:43:54;;;;;;;;;;;;;;;23.95;36.29;99348.27;87633;1284;92955;-71
2022/03/30 07:46:01;;;;;;;;;;;;;;;24.02;35.61;99347.27;87649;1283;80122;-71
2022/03/30 07:48:12;;;;;;;;;;;;;;;23.63;35.11;99347.98;87627;1284;80793;-70
2022/03/30 07:50:23;;;;;;;;;;;;;;;23.83;34.67;99350.08;87602;1284;98101;-71
2022/03/30 07:52:33;;;;;;;;;;;;;;;23.68;34.14;99349.07;87637;1284;86535;-71
2022/03/30 07:54:43;;;;;;;;;;;;;;;23.80;33.79;99347.64;87598;1284;94100;-68
2022/03/30 07:56:53;;;;;;;;;;;;;;;23.86;33.23;99348.26;87636;1284;79231;-67
2022/03/30 07:59:04;;;;;;;;;;;;;;;23.86;32.32;99349.20;87630;1284;81748;-68
2022/03/30 08:01:12;;;;;;;;;;;;;;;23.55;32.48;99352.07;87664;1276;98448;-67
2022/03/30 08:03:19;;;;;;;;;;;;;;;23.90;32.53;99351.06;87587;1285;88614;-67
2022/03/30 08:05:30;;;;;;;;;;;;;;;24.21;32.05;99348.65;87542;1285;95098;-69
2022/03/30 08:07:37;;;;;;;;;;;;;;;24.65;31.71;99350.12;87577;1285;77399;-71
2022/03/30 08:09:44;;;;;;;;;;;;;;;24.96;31.71;99346.79;87403;1285;82694;-71
2022/03/30 08:11:55;;;;;;;;;;;;;;;25.70;31.08;99350.13;87398;1281;100307;-72
2022/03/30 08:14:06;;;;;;;;;;;;;;;25.67;30.78;99350.98;87606;1284;88351;-72
2022/03/30 08:16:13;;;;;;;;;;;;;;;25.17;30.12;99351.04;87613;1284;95012;-72
2022/03/30 08:18:22;;;;;;;;;;;;;;;25.52;30.21;99348.41;87640;1284;79020;-68
2022/03/30 08:22:57;;;;;;;;;;;;;;;25.63;28.74;99356.45;87592;1284;99793;-67
2022/03/30 08:25:09;;;;;;;;;;;;;;;25.58;28.33;99355.48;87644;1284;87448;-69
2022/03/30 08:27:17;;;;;;;;;;;;;;;25.65;28.01;99353.41;87718;1274;95656;-72
2022/03/30 08:29:26;;;;;;;;;;;;;;;25.25;27.92;99357.10;87448;1285;79348;-72
2022/03/30 08:31:34;;;;;;;;;;;;;;;25.14;27.70;99352.64;87422;1285;81554;-70
2022/03/30 08:33:42;;;;;;;;;;;;;;;24.87;27.95;99354.62;87437;1285;99751;-72
2022/03/30 08:35:50;;;;;;;;;;;;;;;24.31;27.88;99350.39;87417;1284;88374;-73
2022/03/30 08:37:59;;;;;;;;;;;;;;;24.12;28.06;99352.64;87474;1285;92919;-68
2022/03/30 08:40:08;;;;;;;;;;;;;;;24.04;28.03;99349.59;87449;1285;78342;-69
2022/03/30 08:42:19;;;;;;;;;;;;;;;24.02;27.66;99351.23;87475;1285;81288;-69
2022/03/30 08:44:27;;;;;;;;;;;;;;;23.94;27.81;99345.98;87715;1275;99528;-72
2022/03/30 08:46:35;;;;;;;;;;;;;;;23.76;27.70;99352.67;87663;1282;88709;-72
2022/03/30 08:48:45;;;;;;;;;;;;;;;23.67;27.37;99353.66;87678;1283;95262;-67
2022/03/30 08:50:56;;;;;;;;;;;;;;;22.84;27.11;99351.41;87666;1284;78244;-69
2022/03/30 08:53:06;;;;;;;;;;;;;;;22.20;27.73;99348.88;87676;1284;80953;-72
2022/03/30 08:55:14;;;;;;;;;;;;;;;22.19;27.73;99351.45;87664;1284;99640;-67
2022/03/30 08:57:21;;;;;;;;;;;;;;;21.49;28.00;99349.24;87400;1284;86416;-68
2022/03/30 08:59:28;;;;;;;;;;;;;;;20.77;28.38;99352.87;87648;1284;95242;-71
2022/03/30 09:01:36;;;;;;;;;;;;;;;20.70;28.84;99354.11;87682;1284;80045;-72
2022/03/30 09:06:28;;;;;;;;;;;;;;;19.05;29.03;99359.30;85383;1308;599800;-71
2022/03/30 09:08:41;;;;;;;;;;;;;;;19.27;29.82;99361.22;87537;1286;81688;-73
2022/03/30 09:10:50;;;;;;;;;;;;;;;20.20;29.99;99355.44;87452;1286;82838;-68
2022/03/30 09:12:57;;;;;;;;;;;;;;;20.65;29.03;99352.54;87599;1286;98252;-68
2022/03/30 09:15:07;;;;;;;;;;;;;;;20.10;28.80;99357.39;88018;1280;88608;-68
2022/03/30 09:17:17;;;;;;;;;;;;;;;19.69;28.97;99357.23;88043;1280;95632;-75
2022/03/30 09:19:25;;;;;;;;;;;;;;;19.11;29.39;99352.64;87657;1278;488607;-72
2022/03/30 09:21:50;;;;;;;;;;;;;;;20.04;29.52;99352.11;88145;1277;81649;-67
2022/03/30 09:23:59;;;;;;;;;;;;;;;21.01;28.87;99349.48;88035;1280;97692;-66
2022/03/30 09:26:06;;;;;;;;;;;;;;;20.87;28.28;99344.21;88075;1277;88628;-73
2022/03/30 09:28:15;;;;;;;;;;;;;;;20.73;28.52;99351.81;88088;1277;95476;-71
2022/03/30 09:30:30;;;;;;;;;;;;;;;21.02;28.57;99339.96;88112;1277;80059;-71
2022/03/30 09:32:42;;;;;;;;;;;;;;;21.62;28.28;99337.44;88114;1277;81656;-68
2022/03/30 09:34:54;;;;;;;;;;;;;;;21.25;27.56;99337.48;88272;1266;98458;-71
2022/03/30 09:37:03;;;;;;;;;;;;;;;21.16;27.67;99339.63;88294;1276;87858;-77
2022/03/30 09:39:30;;;;;;;;;;;;;;;20.88;27.19;99340.80;88136;1277;93823;-75
2022/03/30 09:41:52;;;;;;;;;;;;;;;20.24;27.73;99337.06;88359;1266;80875;-71
2022/03/30 09:44:05;;;;;;;;;;;;;;;20.11;28.23;99339.10;88137;1277;81426;-70
2022/03/30 09:46:15;;;;;;;;;;;;;;;20.17;28.14;99338.02;88139;1277;96429;-68
2022/03/30 09:48:25;;;;;;;;;;;;;;;20.08;28.12;99335.77;88312;1269;87613;-64
2022/03/30 09:50:33;;;;;;;;;;;;;;;19.90;28.31;99338.31;88378;1270;94497;-65
2022/03/30 09:52:42;;;;;;;;;;;;;;;19.61;28.16;99339.27;88176;1277;80511;-66
2022/03/30 09:54:53;;;;;;;;;;;;;;;19.08;28.57;99335.55;88238;1277;81941;-67
2022/03/30 09:57:01;;;;;;;;;;;;;;;18.38;28.60;99333.36;88271;1265;98909;-68
2022/03/30 09:59:09;;;;;;;;;;;;;;;17.72;29.15;99334.02;89679;1274;91438;-65
2022/03/30 10:01:20;;;;;;;;;;;;;;;17.38;29.36;99336.16;89572;1277;97858;-65
2022/03/30 10:03:37;;;;;;;;;;;;;;;17.29;29.83;99335.95;89644;1276;78211;-65
2022/03/30 10:05:46;;;;;;;;;;;;;;;16.98;29.94;99334.67;89723;1276;80215;-64
2022/03/30 10:07:55;;;;;;;;;;;;;;;16.34;30.23;99334.20;89719;1276;98066;-70
2022/03/30 10:10:08;;;;;;;;;;;;;;;15.88;30.71;99341.71;89647;1277;85579;-70
2022/03/30 10:12:19;;;;;;;;;;;;;;;15.62;31.03;99339.51;89656;1275;95689;-68
2022/03/30 10:14:30;;;;;;;;;;;;;;;15.51;31.15;99340.17;89580;1277;79055;-71
2022/03/30 10:16:37;;;;;;;;;;;;;;;15.20;31.49;99338.52;89718;1277;82837;-71
2022/03/30 10:18:47;;;;;;;;;;;;;;;14.91;32.02;99338.86;89474;1279;95637;-70
2022/03/30 10:21:07;;;;;;;;;;;;;;;15.00;32.45;99339.14;89736;1276;89138;-71
2022/03/30 10:23:29;;;;;;;;;;;;;;;14.79;32.56;99340.11;89625;1276;94990;-70
2022/03/30 10:25:59;;;;;;;;;;;;;;;14.68;32.80;99338.86;89709;1276;80879;-69
2022/03/30 10:28:21;;;;;;;;;;;;;;;14.71;32.83;99340.10;89646;1277;80599;-69
2022/03/30 10:30:30;;;;;;;;;;;;;;;14.62;32.92;99336.61;89725;1275;98919;-69
2022/03/30 10:32:39;;;;;;;;;;;;;;;14.57;33.08;99339.51;89608;1277;89221;-69
2022/03/30 10:35:04;;;;;;;;;;;;;;;14.75;33.21;99337.20;89626;1277;95556;-69
2022/03/30 10:37:12;;;;;;;;;;;;;;;14.83;33.10;99335.08;89716;1276;77971;-67
2022/03/30 10:39:28;;;;;;;;;;;;;;;14.76;33.18;99328.46;89624;1276;80118;-67
2022/03/30 10:44:41;;;;;;;;;;;;;;;14.68;32.96;99328.52;85166;1315;599481;-66
2022/03/30 10:47:05;;;;;;;;;;;;;;;14.41;33.24;99329.34;87655;1284;79883;-66
2022/03/30 10:49:46;;;;;;;;;;;;;;;14.35;33.50;99330.77;87726;1273;81476;-66
2022/03/30 10:52:25;;;;;;;;;;;;;;;14.41;33.79;99328.09;87636;1286;96929;-67
2022/03/30 10:54:35;;;;;;;;;;;;;;;14.30;33.71;99331.95;87590;1286;89075;-70
2022/03/30 10:56:53;;;;;;;;;;;;;;;14.09;33.70;99329.20;87895;1283;94474;-70
2022/03/30 10:59:10;;;;;;;;;;;;;;;13.86;33.98;99330.80;87749;1280;357076;-66
2022/03/30 11:01:22;;;;;;;;;;;;;;;13.72;34.06;99329.23;88057;1280;82007;-65
2022/03/30 11:03:29;;;;;;;;;;;;;;;13.68;34.17;99331.24;88013;1282;96467;-69
2022/03/30 11:05:37;;;;;;;;;;;;;;;13.77;34.35;99328.80;88053;1280;88465;-69
2022/03/30 11:07:48;;;;;;;;;;;;;;;13.75;34.30;99326.99;88037;1280;94466;-65
2022/03/30 11:10:29;;;;;;;;;;;;;;;13.80;34.34;99328.10;88053;1280;78740;-67
2022/03/30 11:15:13;;;;;;;;;;;;;;;13.77;34.18;99337.85;85333;1312;599469;-71
2022/03/30 11:17:35;;;;;;;;;;;;;;;13.32;34.26;99339.70;87869;1284;78601;-70
2022/03/30 11:20:08;;;;;;;;;;;;;;;13.36;34.39;99332.36;87842;1283;81071;-68
2022/03/30 11:22:17;;;;;;;;;;;;;;;13.54;34.33;99330.95;87817;1283;97821;-68
2022/03/30 11:24:30;;;;;;;;;;;;;;;13.71;34.32;99329.15;87826;1283;86214;-68
2022/03/30 11:27:17;;;;;;;;;;;;;;;13.84;34.57;99325.05;87814;1284;94848;-68
2022/03/30 11:29:52;;;;;;;;;;;;;;;13.69;34.15;99325.18;87530;1281;355354;-68
2022/03/30 11:32:00;;;;;;;;;;;;;;;13.59;34.34;99319.30;88347;1270;83168;-71
2022/03/30 11:34:30;;;;;;;;;;;;;;;13.63;34.40;99322.91;88449;1265;97709;-65
2022/03/30 11:36:40;;;;;;;;;;;;;;;13.73;34.35;99320.23;88197;1275;87489;-67
2022/03/30 11:38:55;;;;;;;;;;;;;;;13.92;34.46;99320.55;88214;1274;94337;-71
2022/03/30 11:41:06;;;;;;;;;;;;;;;14.10;34.31;99324.29;88189;1277;78383;-70
2022/03/30 11:43:19;;;;;;;;;;;;;;;14.01;33.83;99317.83;88192;1277;81905;-71
2022/03/30 11:45:29;;;;;;;;;;;;;;;13.85;33.77;99327.23;88122;1277;97219;-68
2022/03/30 11:47:40;;;;;;;;;;;;;;;13.97;33.86;99320.19;88218;1277;86849;-68